Time;durP1;ratioP1;P1;durP2;ratioP2;P2;SDS_P1;SDS_P2;PMS_P1;PMS_P2;Temp;Humidity;BMP_temperature;BMP_pressure;BME280_temperature;BME280_humidity;BME280_pressure;Samples;Min_cycle;Max_cycle;Signal;HPM_P1;HPM_P2
2023/07/10 09:09:43;;;;;;;9.40;8.32;;;;;;;;;;6110164;23;20053;-83
2023/07/10 09:12:36;;;;;;;9.25;7.97;;;;;;;;;;6125806;23;20010;-91
2023/07/10 09:15:07;;;;;;;10.85;9.10;;;;;;;;;;6112789;23;20010;-87
2023/07/10 09:18:01;;;;;;;9.15;8.25;;;;;;;;;;6126199;23;20016;-90
2023/07/10 09:20:26;;;;;;;9.85;8.55;;;;;;;;;;6126695;23;20338;-88
2023/07/10 09:22:57;;;;;;;9.15;7.85;;;;;;;;;;6128617;23;20089;-90
2023/07/10 09:25:23;;;;;;;11.30;8.15;;;;;;;;;;6128117;23;20006;-88
2023/07/10 09:27:49;;;;;;;9.38;7.60;;;;;;;;;;6129200;23;20002;-85
2023/07/10 09:30:49;;;;;;;9.68;8.63;;;;;;;;;;6102680;23;20016;-91
2023/07/10 09:33:14;;;;;;;9.13;8.25;;;;;;;;;;6128303;23;20083;-89
2023/07/10 09:35:42;;;;;;;9.38;8.45;;;;;;;;;;6128502;23;20421;-90
2023/07/10 09:38:12;;;;;;;9.60;8.80;;;;;;;;;;6128586;23;20480;-90
2023/07/10 09:40:43;;;;;;;9.38;8.15;;;;;;;;;;6128206;23;20429;-90
2023/07/10 09:43:15;;;;;;;13.90;8.55;;;;;;;;;;6128326;23;20379;-88
2023/07/10 09:45:49;;;;;;;10.98;9.00;;;;;;;;;;6128210;23;20307;-91
2023/07/10 09:48:21;;;;;;;10.50;9.40;;;;;;;;;;6128071;23;20002;-87
2023/07/10 09:50:49;;;;;;;9.63;8.38;;;;;;;;;;6128035;23;20006;-87
2023/07/10 09:53:31;;;;;;;9.25;8.23;;;;;;;;;;6126931;23;20021;-93
2023/07/10 09:55:57;;;;;;;11.07;8.88;;;;;;;;;;6128492;23;20133;-89
2023/07/10 09:58:23;;;;;;;12.38;9.45;;;;;;;;;;6128638;23;20008;-88
2023/07/10 10:00:49;;;;;;;10.18;9.18;;;;;;;;;;6102187;23;20010;-87
2023/07/10 10:03:25;;;;;;;12.50;9.80;;;;;;;;;;6127949;23;20080;-87
2023/07/10 10:05:54;;;;;;;10.55;9.13;;;;;;;;;;6128203;23;20006;-94
2023/07/10 10:08:21;;;;;;;;;;;;;;;;;;6116850;23;20040;-87
2023/07/10 10:11:06;;;;;;;10.80;9.45;;;;;;;;;;6157653;23;19916;-85
2023/07/10 10:13:37;;;;;;;11.18;8.88;;;;;;;;;;6158246;23;20423;-87
2023/07/10 10:16:11;;;;;;;10.60;9.50;;;;;;;;;;6155786;23;20414;-85
2023/07/10 10:19:14;;;;;;;10.57;9.00;;;;;;;;;;6157769;23;20012;-95
2023/07/10 10:21:40;;;;;;;12.20;8.55;;;;;;;;;;6138440;23;20310;-86
2023/07/10 10:24:10;;;;;;;10.32;9.32;;;;;;;;;;6156454;23;20009;-85
2023/07/10 10:27:03;;;;;;;9.48;8.57;;;;;;;;;;6157397;23;20048;-86
2023/07/10 10:29:50;;;;;;;9.77;8.88;;;;;;;;;;6158607;23;20002;-87
2023/07/10 10:32:31;;;;;;;10.82;9.38;;;;;;;;;;6158147;23;20005;-90
2023/07/10 10:35:09;;;;;;;11.27;8.68;;;;;;;;;;6157212;23;20005;-87
2023/07/10 10:38:03;;;;;;;10.70;9.60;;;;;;;;;;6157075;23;20008;-88
2023/07/10 10:40:47;;;;;;;9.75;8.63;;;;;;;;;;6131533;23;20006;-89
2023/07/10 10:43:46;;;;;;;11.60;9.63;;;;;;;;;;6157268;23;20068;-90
2023/07/10 10:46:33;;;;;;;10.27;9.18;;;;;;;;;;6157103;23;20081;-85
2023/07/10 10:49:20;;;;;;;11.02;8.80;;;;;;;;;;6155703;23;20012;-86
2023/07/10 10:52:24;;;;;;;10.65;8.80;;;;;;;;;;6155746;23;20006;-88
2023/07/10 10:54:53;;;;;;;10.15;9.15;;;;;;;;;;6139489;23;20016;-86
2023/07/10 10:57:46;;;;;;;13.82;9.27;;;;;;;;;;6155452;23;20005;-86
2023/07/10 11:00:29;;;;;;;10.27;9.27;;;;;;;;;;6156421;23;20001;-85
2023/07/10 11:03:13;;;;;;;8.93;8.02;;;;;;;;;;6155621;23;20013;-90
2023/07/10 11:05:49;;;;;;;8.35;7.55;;;;;;;;;;6155244;23;20332;-89
2023/07/10 11:08:24;;;;;;;13.10;8.40;;;;;;;;;;6156309;23;20010;-85
2023/07/10 11:10:52;;;;;;;10.60;8.48;;;;;;;;;;6156411;23;20404;-84
2023/07/10 11:13:29;;;;;;;11.23;8.38;;;;;;;;;;6155413;23;20030;-88
2023/07/10 11:15:56;;;;;;;8.98;7.88;;;;;;;;;;6155639;23;20001;-85
2023/07/10 11:18:22;;;;;;;12.80;7.90;;;;;;;;;;6155394;23;20329;-85
2023/07/10 11:20:48;;;;;;;8.60;7.80;;;;;;;;;;6153667;23;20005;-85
2023/07/10 11:23:50;;;;;;;9.80;8.18;;;;;;;;;;6155157;23;20121;-88
2023/07/10 11:26:19;;;;;;;10.15;7.60;;;;;;;;;;6093747;23;20037;-85
2023/07/10 11:28:59;;;;;;;9.88;8.00;;;;;;;;;;6155543;23;20002;-88
2023/07/10 11:31:31;;;;;;;8.93;7.07;;;;;;;;;;6155932;23;20006;-85
2023/07/10 11:34:19;;;;;;;9.02;8.13;;;;;;;;;;6155086;23;20349;-86
2023/07/10 11:36:45;;;;;;;7.78;7.07;;;;;;;;;;6154609;23;20376;-86
2023/07/10 11:39:29;;;;;;;9.52;7.88;;;;;;;;;;6156370;23;20422;-86
2023/07/10 11:41:55;;;;;;;11.27;7.88;;;;;;;;;;6156477;23;20008;-88
2023/07/10 16:07:06;;;;;;;11.25;10.13;;;;;;;;;;6171865;23;20084;-90
2023/07/10 16:09:31;;;;;;;11.52;10.43;;;;;;;;;;6157152;23;20010;-91
2023/07/10 16:11:57;;;;;;;10.05;9.13;;;;;;;;;;6156775;23;20002;-88
2023/07/10 16:14:28;;;;;;;10.07;9.18;;;;;;;;;;6157310;23;20012;-91
2023/07/10 16:16:53;;;;;;;10.63;9.52;;;;;;;;;;6156775;23;20009;-88
2023/07/10 16:19:19;;;;;;;10.60;9.48;;;;;;;;;;6157281;23;20006;-89
2023/07/10 16:21:50;;;;;;;12.57;9.77;;;;;;;;;;6158295;23;20001;-90
2023/07/10 16:24:17;;;;;;;10.50;9.40;;;;;;;;;;6156584;23;20005;-91
2023/07/10 16:26:44;;;;;;;10.30;9.30;;;;;;;;;;6158592;23;20006;-91
2023/07/10 16:29:11;;;;;;;11.95;10.35;;;;;;;;;;6158346;23;20002;-92
2023/07/10 16:31:38;;;;;;;10.05;9.02;;;;;;;;;;6158886;23;20012;-94
2023/07/10 16:34:04;;;;;;;9.80;8.80;;;;;;;;;;6158400;23;20032;-90
2023/07/10 16:36:30;;;;;;;10.57;9.40;;;;;;;;;;6158231;23;20329;-88
2023/07/10 16:38:56;;;;;;;10.88;9.88;;;;;;;;;;6157924;23;20005;-88
2023/07/10 16:41:21;;;;;;;11.82;10.13;;;;;;;;;;6158258;23;19999;-91
2023/07/10 16:43:48;;;;;;;11.40;10.30;;;;;;;;;;6156332;23;20076;-88
2023/07/10 16:46:15;;;;;;;11.27;9.50;;;;;;;;;;6158271;23;20002;-91
2023/07/10 16:48:43;;;;;;;11.55;10.48;;;;;;;;;;6158453;23;20005;-90
2023/07/10 16:51:20;;;;;;;11.30;9.95;;;;;;;;;;6158287;23;20444;-89
2023/07/10 16:53:45;;;;;;;11.98;10.70;;;;;;;;;;6158170;23;20002;-90
2023/07/10 16:56:16;;;;;;;11.13;9.57;;;;;;;;;;6158252;23;20064;-90
2023/07/10 16:58:42;;;;;;;10.95;9.95;;;;;;;;;;6157391;23;20013;-90
2023/07/10 17:01:24;;;;;;;11.00;9.90;;;;;;;;;;6157994;23;20009;-88
2023/07/10 17:03:52;;;;;;;11.27;10.18;;;;;;;;;;6156335;23;20028;-87
2023/07/10 17:06:24;;;;;;;11.93;10.47;;;;;;;;;;6158210;23;20429;-88
2023/07/10 17:08:50;;;;;;;11.13;9.90;;;;;;;;;;6162319;23;20437;-93
2023/07/10 17:11:31;;;;;;;10.63;9.63;;;;;;;;;;6159182;23;20012;-93
2023/07/10 17:13:57;;;;;;;10.80;9.68;;;;;;;;;;6158776;23;20425;-92
2023/07/10 17:16:23;;;;;;;11.23;9.77;;;;;;;;;;6158942;23;20009;-92
2023/07/10 17:18:49;;;;;;;12.07;10.88;;;;;;;;;;6159284;23;20001;-90
2023/07/10 17:21:15;;;;;;;12.05;10.85;;;;;;;;;;6164030;23;20013;-87
2023/07/10 17:23:41;;;;;;;11.27;10.07;;;;;;;;;;6160231;23;20409;-91
2023/07/10 17:26:14;;;;;;;10.77;9.75;;;;;;;;;;6165439;23;20013;-86
2023/07/10 17:28:40;;;;;;;11.93;10.73;;;;;;;;;;6165207;23;20002;-89
2023/07/10 17:31:27;;;;;;;15.10;13.52;;;;;;;;;;6175962;23;20011;-84
2023/07/10 17:33:58;;;;;;;32.42;19.60;;;;;;;;;;6178453;23;20009;-84
2023/07/10 17:36:25;;;;;;;42.20;21.92;;;;;;;;;;6179213;23;20058;-84
2023/07/10 17:38:50;;;;;;;44.17;25.20;;;;;;;;;;6180347;23;19989;-87
2023/07/10 17:41:18;;;;;;;15.88;13.40;;;;;;;;;;6164087;23;20025;-94
2023/07/10 17:43:44;;;;;;;13.70;11.57;;;;;;;;;;6161116;23;20001;-90
2023/07/10 17:46:10;;;;;;;11.65;10.48;;;;;;;;;;6162624;23;20398;-91
2023/07/10 17:48:36;;;;;;;11.00;9.82;;;;;;;;;;6159612;23;20001;-91
2023/07/10 17:51:32;;;;;;;11.50;10.30;;;;;;;;;;6158504;23;20001;-86
2023/07/10 17:53:58;;;;;;;11.45;10.32;;;;;;;;;;6158136;23;20009;-93
2023/07/10 17:56:24;;;;;;;11.15;10.05;;;;;;;;;;6158468;23;20072;-91
2023/07/10 17:58:53;;;;;;;11.20;10.10;;;;;;;;;;6159932;23;20001;-90
2023/07/10 18:01:21;;;;;;;12.00;10.80;;;;;;;;;;6163099;23;20076;-96
2023/07/10 18:03:48;;;;;;;11.73;9.95;;;;;;;;;;6160363;23;20005;-90
2023/07/10 18:06:15;;;;;;;12.50;10.65;;;;;;;;;;6158349;23;20102;-91
2023/07/10 18:08:41;;;;;;;10.50;9.43;;;;;;;;;;6159806;23;20037;-93
2023/07/10 18:11:09;;;;;;;11.55;10.43;;;;;;;;;;6160362;23;20025;-94
2023/07/10 18:13:39;;;;;;;11.88;10.60;;;;;;;;;;6162466;23;20001;-94
2023/07/10 18:16:07;;;;;;;13.07;11.63;;;;;;;;;;6164709;23;20029;-93
2023/07/10 18:18:34;;;;;;;13.15;11.85;;;;;;;;;;6159864;23;20100;-89
2023/07/10 18:21:19;;;;;;;12.60;11.23;;;;;;;;;;6161321;23;20076;-93
2023/07/10 18:23:45;;;;;;;11.63;10.60;;;;;;;;;;6157266;23;20017;-89
2023/07/10 18:26:10;;;;;;;11.77;10.68;;;;;;;;;;6158217;23;20033;-92
2023/07/10 18:28:37;;;;;;;11.65;10.45;;;;;;;;;;6157513;23;20001;-88
2023/07/10 18:31:04;;;;;;;13.75;11.50;;;;;;;;;;6157343;23;20333;-90
2023/07/10 18:33:30;;;;;;;12.32;11.13;;;;;;;;;;6156994;23;20073;-88
2023/07/10 18:35:56;;;;;;;11.57;10.38;;;;;;;;;;6157140;23;20088;-89
2023/07/10 18:38:25;;;;;;;13.80;10.52;;;;;;;;;;6157018;23;20448;-88
2023/07/10 18:40:55;;;;;;;;;;;;;;;;;;6157605;23;20057;-90
2023/07/10 18:43:23;;;;;;;12.10;10.77;;;;;;;;;;6158157;23;19913;-90
2023/07/10 18:45:52;;;;;;;11.75;10.65;;;;;;;;;;6157513;23;20013;-90
2023/07/10 18:48:21;;;;;;;10.88;9.77;;;;;;;;;;6156253;23;20032;-88
2023/07/10 18:50:48;;;;;;;10.88;9.90;;;;;;;;;;6156962;23;20010;-89
2023/07/10 18:53:22;;;;;;;10.63;9.55;;;;;;;;;;6156612;23;20340;-88
2023/07/10 18:55:47;;;;;;;11.68;10.35;;;;;;;;;;6157320;23;20005;-89
2023/07/10 18:58:21;;;;;;;11.55;10.35;;;;;;;;;;6157355;23;20080;-91
2023/07/10 19:00:47;;;;;;;11.10;9.98;;;;;;;;;;6157644;23;20009;-90
2023/07/10 19:03:14;;;;;;;11.30;10.20;;;;;;;;;;6155888;23;20032;-90
2023/07/10 19:05:40;;;;;;;12.50;11.30;;;;;;;;;;6157106;23;20017;-90
2023/07/10 19:08:17;;;;;;;11.38;10.30;;;;;;;;;;6154948;23;20021;-90
2023/07/10 19:10:43;;;;;;;11.57;10.15;;;;;;;;;;6156907;23;20068;-89
2023/07/10 19:13:20;;;;;;;12.07;10.88;;;;;;;;;;6156977;23;19997;-90
2023/07/10 19:15:49;;;;;;;12.07;10.88;;;;;;;;;;6156894;23;20005;-88
2023/07/10 19:18:18;;;;;;;11.48;10.18;;;;;;;;;;6155452;23;20052;-87
2023/07/10 19:20:44;;;;;;;11.32;10.23;;;;;;;;;;6157188;23;20008;-89
2023/07/10 19:23:17;;;;;;;10.88;9.77;;;;;;;;;;6157088;23;20321;-90
2023/07/10 19:25:43;;;;;;;11.63;10.02;;;;;;;;;;6156604;23;20456;-90
2023/07/10 19:28:08;;;;;;;12.10;10.65;;;;;;;;;;6157363;23;20005;-90
2023/07/10 19:30:35;;;;;;;11.15;10.15;;;;;;;;;;6155437;23;20033;-89
2023/07/10 19:33:00;;;;;;;12.93;10.65;;;;;;;;;;6157080;23;20072;-89
2023/07/10 19:35:26;;;;;;;11.38;10.27;;;;;;;;;;6156443;23;20025;-91
2023/07/10 19:37:51;;;;;;;12.20;11.00;;;;;;;;;;6157011;23;20005;-87
2023/07/10 19:40:22;;;;;;;12.32;9.95;;;;;;;;;;6157646;23;20034;-87
2023/07/10 19:42:48;;;;;;;12.70;10.50;;;;;;;;;;6156856;23;20013;-86
2023/07/10 19:45:17;;;;;;;10.77;9.68;;;;;;;;;;6156776;23;20006;-88
2023/07/10 19:47:43;;;;;;;9.85;8.95;;;;;;;;;;6157254;23;20073;-85
2023/07/10 19:50:19;;;;;;;10.88;9.93;;;;;;;;;;6156661;23;20080;-87
2023/07/10 19:52:45;;;;;;;10.57;9.57;;;;;;;;;;6157320;23;20001;-88
2023/07/10 19:55:13;;;;;;;10.10;9.20;;;;;;;;;;6158109;23;20002;-85
2023/07/10 19:57:39;;;;;;;11.55;10.43;;;;;;;;;;6157922;23;20021;-89
2023/07/10 20:00:05;;;;;;;11.05;9.95;;;;;;;;;;6154957;23;20029;-85
2023/07/10 20:02:31;;;;;;;12.23;10.25;;;;;;;;;;6156169;23;20053;-88
2023/07/10 20:04:56;;;;;;;10.40;9.40;;;;;;;;;;6156344;23;20421;-89
2023/07/10 20:07:22;;;;;;;11.73;10.38;;;;;;;;;;6156645;23;20045;-84
2023/07/10 20:09:48;;;;;;;11.82;9.95;;;;;;;;;;6156414;23;20013;-87
2023/07/10 20:12:21;;;;;;;11.23;10.05;;;;;;;;;;6156526;23;20010;-85
2023/07/10 20:14:48;;;;;;;10.30;9.30;;;;;;;;;;6156687;23;20028;-87
2023/07/10 20:17:28;;;;;;;10.70;9.60;;;;;;;;;;6156644;23;20084;-88
2023/07/10 20:19:53;;;;;;;11.13;9.95;;;;;;;;;;6156860;23;20128;-85
2023/07/10 20:22:19;;;;;;;11.95;10.85;;;;;;;;;;6156705;23;20025;-89
2023/07/10 20:24:51;;;;;;;16.02;11.43;;;;;;;;;;6157962;23;20005;-86
2023/07/10 20:27:16;;;;;;;12.45;11.25;;;;;;;;;;6166567;23;20492;-87
2023/07/10 20:29:42;;;;;;;11.80;10.70;;;;;;;;;;6162360;23;20002;-87
2023/07/10 20:32:13;;;;;;;12.20;11.00;;;;;;;;;;6156747;23;20013;-85
2023/07/10 20:34:45;;;;;;;11.90;10.75;;;;;;;;;;6156399;23;20028;-92
2023/07/10 20:37:10;;;;;;;11.18;10.07;;;;;;;;;;6156501;23;20005;-87
2023/07/10 20:39:36;;;;;;;11.65;10.45;;;;;;;;;;6156835;23;20008;-86
2023/07/10 20:42:02;;;;;;;11.63;10.43;;;;;;;;;;6156466;23;20052;-92
2023/07/10 20:44:28;;;;;;;10.85;9.85;;;;;;;;;;6159430;23;20002;-90
2023/07/10 20:46:55;;;;;;;10.98;9.98;;;;;;;;;;6156475;23;20005;-93
2023/07/10 20:49:24;;;;;;;11.50;10.30;;;;;;;;;;6156963;23;20065;-90
2023/07/10 20:51:50;;;;;;;10.43;9.43;;;;;;;;;;6156359;23;20064;-91
2023/07/10 20:54:18;;;;;;;10.60;9.50;;;;;;;;;;6156233;23;20005;-91
2023/07/10 20:56:50;;;;;;;12.18;10.05;;;;;;;;;;6156564;23;20021;-86
2023/07/10 20:59:29;;;;;;;13.48;9.18;;;;;;;;;;6156377;23;20002;-90
2023/07/10 21:01:55;;;;;;;10.73;9.63;;;;;;;;;;6156356;23;20414;-91
2023/07/10 21:04:22;;;;;;;10.93;9.80;;;;;;;;;;6156292;23;20009;-91
2023/07/10 21:06:50;;;;;;;10.52;9.52;;;;;;;;;;6154678;23;20013;-89
2023/07/10 21:09:39;;;;;;;10.55;9.50;;;;;;;;;;6156361;23;20059;-92
2023/07/10 21:12:04;;;;;;;;;;;;;;;;;;6136441;23;20385;-93
2023/07/10 21:14:30;;;;;;;11.00;10.00;;;;;;;;;;6157410;23;19909;-93
2023/07/10 21:16:55;;;;;;;11.05;9.65;;;;;;;;;;6158150;23;19997;-93
2023/07/10 21:19:27;;;;;;;10.35;9.40;;;;;;;;;;6158502;23;20002;-90
2023/07/10 21:21:53;;;;;;;10.63;9.63;;;;;;;;;;6158448;23;20037;-92
2023/07/10 21:24:21;;;;;;;10.68;9.57;;;;;;;;;;6158005;23;20109;-91
2023/07/10 21:26:55;;;;;;;13.07;11.40;;;;;;;;;;6158154;23;20376;-88
2023/07/10 21:29:20;;;;;;;13.30;12.00;;;;;;;;;;6158104;23;20002;-92
2023/07/10 21:31:46;;;;;;;12.02;10.93;;;;;;;;;;6157862;23;20033;-91
2023/07/10 21:34:13;;;;;;;11.65;10.55;;;;;;;;;;6158404;23;20056;-91
2023/07/10 21:36:40;;;;;;;11.35;10.25;;;;;;;;;;6158564;23;20031;-92
2023/07/10 21:39:06;;;;;;;10.52;9.52;;;;;;;;;;6158028;23;20372;-90
2023/07/10 21:41:37;;;;;;;11.82;10.73;;;;;;;;;;6158303;23;20025;-90
2023/07/10 21:44:06;;;;;;;11.55;10.55;;;;;;;;;;6158586;23;20005;-93
